Time;durP1;ratioP1;P1;durP2;ratioP2;P2;SDS_P1;SDS_P2;PMS_P1;PMS_P2;Temp;Humidity;BMP_temperature;BMP_pressure;BME280_temperature;BME280_humidity;BME280_pressure;Samples;Min_cycle;Max_cycle;Signal;HPM_P1;HPM_P2
2021/06/10 00:00:35;;;;;;;;;11.75;11.75;;;;;26.05;45.74;101609.78;5092860;27;45706;-47
2021/06/10 00:03:00;;;;;;;;;12.25;12.25;;;;;26.02;45.32;101609.09;5087156;27;46967;-48
2021/06/10 00:05:26;;;;;;;;;11.00;11.00;;;;;26.01;45.43;101601.94;5093527;27;45491;-45
2021/06/10 00:07:53;;;;;;;;;11.75;11.75;;;;;26.00;45.25;101603.78;5087296;27;45398;-47
2021/06/10 00:10:21;;;;;;;;;13.00;11.75;;;;;25.99;45.42;101607.50;5095162;27;45642;-51
2021/06/10 00:12:47;;;;;;;;;10.00;10.00;;;;;25.99;45.99;101609.34;5092652;27;48276;-49
2021/06/10 00:15:18;;;;;;;;;12.25;12.25;;;;;25.98;45.74;101602.16;5091252;27;46114;-49
2021/06/10 00:17:44;;;;;;;;;14.25;13.25;;;;;25.98;46.11;101602.16;5086983;27;45458;-51
2021/06/10 00:20:12;;;;;;;;;13.00;13.00;;;;;25.97;46.02;101600.44;5093446;27;45338;-48
2021/06/10 00:22:38;;;;;;;;;12.50;12.00;;;;;25.96;46.12;101601.41;5091409;27;47613;-49
2021/06/10 00:25:06;;;;;;;;;10.75;10.75;;;;;25.95;45.87;101605.13;5096157;27;45840;-50
2021/06/10 00:27:31;;;;;;;;;12.00;11.75;;;;;25.94;45.83;101601.53;5090392;27;45557;-50
2021/06/10 00:29:56;;;;;;;;;12.00;12.00;;;;;25.93;46.28;101604.34;5085337;27;45466;-48
2021/06/10 00:32:22;;;;;;;;;11.00;11.00;;;;;25.92;46.21;101608.03;5092131;27;47322;-53
2021/06/10 00:34:47;;;;;;;;;13.00;13.00;;;;;25.89;46.03;101605.53;5094797;27;45604;-50
2021/06/10 00:37:14;;;;;;;;;14.50;13.00;;;;;25.90;46.32;101607.28;5087949;27;45557;-48
2021/06/10 00:39:40;;;;;;;;;11.00;10.50;;;;;25.89;46.56;101608.25;5123217;27;45527;-46
2021/06/10 00:42:07;;;;;;;;;12.00;12.00;;;;;25.87;46.68;101616.53;5085940;27;48303;-51
2021/06/10 00:44:33;;;;;;;;;11.75;11.75;;;;;25.85;46.92;101615.78;5092194;27;45643;-48
2021/06/10 00:46:59;;;;;;;;;11.00;11.00;;;;;25.84;47.09;101608.59;5089074;27;45624;-47
2021/06/10 00:49:24;;;;;;;;;11.00;11.00;;;;;25.78;47.26;101609.88;5091430;27;45359;-46
2021/06/10 00:51:50;;;;;;;;;13.25;10.25;;;;;25.74;47.61;101612.94;5089730;27;47052;-48
2021/06/10 00:54:16;;;;;;;;;15.75;14.75;;;;;25.70;47.68;101612.31;5094039;27;45855;-51
2021/06/10 00:56:41;;;;;;;;;11.00;11.00;;;;;25.67;47.73;101614.34;5086533;27;45463;-48
2021/06/10 00:59:07;;;;;;;;;13.25;11.25;;;;;25.62;47.90;101608.34;5086954;27;45495;-47
2021/06/10 01:01:32;;;;;;;;;12.00;11.25;;;;;25.60;48.01;101610.31;5092262;27;47329;-48
2021/06/10 01:03:59;;;;;;;;;13.75;13.75;;;;;25.58;47.87;101612.28;5095623;27;45645;-50
2021/06/10 01:06:39;;;;;;;;;11.25;10.25;;;;;25.53;47.94;101613.44;5099179;27;45547;-49
2021/06/10 01:09:13;;;;;;;;;11.25;11.25;;;;;25.46;48.57;101608.56;5097091;27;45655;-51
2021/06/10 01:12:00;;;;;;;;;11.75;11.75;;;;;25.43;48.62;101606.94;5091961;27;46714;-51
2021/06/10 01:14:31;;;;;;;;;12.00;12.00;;;;;25.40;48.26;101606.25;5094839;27;45931;-49
2021/06/10 01:17:00;;;;;;;;;13.25;13.00;;;;;25.37;48.70;101599.19;5095800;27;45588;-53
2021/06/10 01:19:41;;;;;;;;;13.25;13.25;;;;;25.30;48.41;101599.75;5090160;27;45603;-51
2021/06/10 01:22:16;;;;;;;;;11.00;10.25;;;;;25.29;48.36;101603.44;5091569;27;47421;-49
2021/06/10 01:24:50;;;;;;;;;13.00;12.00;;;;;25.26;48.30;101599.06;5096974;27;45500;-50
2021/06/10 01:27:26;;;;;;;;;10.50;10.50;;;;;25.24;48.29;101599.19;5086267;27;45623;-49
2021/06/10 01:29:58;;;;;;;;;13.00;13.00;;;;;25.22;47.94;101595.69;5095119;27;45431;-47
2021/06/10 01:32:25;;;;;;;;;11.50;11.25;;;;;25.22;48.33;101592.13;5095446;27;46413;-48
2021/06/10 01:34:52;;;;;;;;;11.00;11.00;;;;;25.21;48.20;101587.66;5097093;27;45717;-49
2021/06/10 01:37:20;;;;;;;;;12.00;10.00;;;;;25.19;48.35;101595.94;5085813;27;45497;-48
2021/06/10 01:39:49;;;;;;;;;12.75;12.75;;;;;25.19;48.32;101595.94;5092491;27;45575;-49
2021/06/10 01:42:16;;;;;;;;;9.50;9.50;;;;;25.19;48.31;101587.78;5095756;27;48386;-47
2021/06/10 01:44:43;;;;;;;;;11.50;11.50;;;;;25.17;48.13;101580.72;5094098;27;45293;-48
2021/06/10 01:47:09;;;;;;;;;10.25;10.25;;;;;25.14;48.39;101591.75;5092689;27;45751;-47
2021/06/10 01:49:37;;;;;;;;;13.25;13.25;;;;;25.13;48.43;101587.31;5092344;27;46096;-52
2021/06/10 01:52:06;;;;;;;;;11.75;11.75;;;;;25.12;48.12;101593.72;5092469;27;45582;-51
2021/06/10 01:54:33;;;;;;;;;12.00;12.00;;;;;25.09;48.14;101591.22;5096424;27;45432;-49
2021/06/10 01:57:02;;;;;;;;;13.00;11.75;;;;;25.07;48.48;101595.91;5086944;27;45403;-48
2021/06/10 01:59:30;;;;;;;;;13.25;12.75;;;;;25.04;48.23;101587.97;5089540;27;45645;-48
2021/06/10 02:01:59;;;;;;;;;11.00;11.00;;;;;25.00;48.32;101579.09;5095898;27;47880;-48
2021/06/10 02:04:25;;;;;;;;;10.00;10.00;;;;;24.98;48.24;101581.06;5094401;27;45480;-47
2021/06/10 02:06:51;;;;;;;;;12.75;12.75;;;;;24.97;48.19;101576.59;5096804;27;45581;-48
2021/06/10 02:09:20;;;;;;;;;10.25;10.25;;;;;24.95;48.19;101570.41;5088978;27;45542;-49
2021/06/10 02:11:48;;;;;;;;;11.25;11.25;;;;;24.94;48.49;101574.09;5095042;27;47788;-48
2021/06/10 02:14:18;;;;;;;;;11.25;11.25;;;;;24.93;48.28;101580.50;5093330;27;45490;-47
2021/06/10 02:16:44;;;;;;;;;13.25;13.25;;;;;24.88;48.48;101582.66;5098556;27;45407;-49
2021/06/10 02:19:09;;;;;;;;;13.00;12.00;;;;;24.82;48.49;101586.66;5087803;27;45396;-48
2021/06/10 02:21:35;;;;;;;;;10.00;10.00;;;;;24.78;47.98;101587.84;5091333;27;48203;-50
2021/06/10 02:24:00;;;;;;;;;12.25;12.25;;;;;24.68;47.69;101594.88;5092465;27;45671;-53
2021/06/10 02:26:26;;;;;;;;;8.75;8.75;;;;;24.59;47.94;101590.91;5097830;27;45518;-49
2021/06/10 02:28:51;;;;;;;;;9.75;9.50;;;;;24.55;47.69;101589.41;5086952;27;45367;-49
2021/06/10 02:31:17;;;;;;;;;11.50;10.75;;;;;24.52;47.87;101592.31;5088564;27;48134;-51
2021/06/10 02:33:45;;;;;;;;;9.00;9.00;;;;;24.50;47.94;101593.38;5098144;27;45479;-47
2021/06/10 02:36:14;;;;;;;;;10.50;9.75;;;;;24.46;47.88;101595.41;5087349;27;47145;-49
2021/06/10 02:38:44;;;;;;;;;10.50;10.00;;;;;24.47;47.91;101588.16;5098301;27;45581;-48
2021/06/10 02:41:11;;;;;;;;;11.50;10.50;;;;;24.45;47.68;101590.09;5093247;27;48208;-48
2021/06/10 02:43:38;;;;;;;;;9.00;8.75;;;;;24.43;47.86;101590.19;5095355;27;45897;-50
2021/06/10 02:46:05;;;;;;;;;13.00;11.50;;;;;24.42;47.98;101593.88;5092220;27;45499;-48
2021/06/10 02:48:32;;;;;;;;;11.50;11.50;;;;;24.38;47.76;101588.75;5103819;27;45565;-49
2021/06/10 02:50:59;;;;;;;;;13.00;11.25;;;;;24.29;48.26;101585.66;5122248;27;48356;-50
2021/06/10 02:53:29;;;;;;;;;11.25;11.00;;;;;24.21;47.96;101582.56;5110389;27;45519;-52
2021/06/10 02:55:55;;;;;;;;;10.00;10.00;;;;;24.17;48.19;101583.75;5088767;27;45446;-47
2021/06/10 02:58:23;;;;;;;;;9.75;9.75;;;;;24.16;48.11;101573.88;5090458;27;45387;-51
2021/06/10 03:00:49;;;;;;;;;8.75;8.50;;;;;24.15;48.11;101579.38;5093182;27;47367;-52
2021/06/10 03:03:16;;;;;;;;;12.25;12.25;;;;;24.12;47.83;101579.56;5085036;27;45815;-50
2021/06/10 03:05:44;;;;;;;;;11.50;11.50;;;;;24.06;48.07;101581.72;5092849;27;45314;-50
2021/06/10 03:08:15;;;;;;;;;13.00;11.50;;;;;23.97;48.13;101576.88;5096830;27;45642;-49
2021/06/10 03:10:42;;;;;;;;;10.50;10.50;;;;;23.92;48.09;101584.44;5087893;27;46376;-54
2021/06/10 03:13:09;;;;;;;;;9.50;9.50;;;;;23.85;48.01;101579.50;5087267;27;45609;-51
2021/06/10 03:15:36;;;;;;;;;8.25;8.25;;;;;23.78;48.07;101577.19;5094880;27;45919;-53
2021/06/10 03:18:03;;;;;;;;;12.50;11.50;;;;;23.74;48.55;101574.75;5086824;27;45353;-49
2021/06/10 03:20:29;;;;;;;;;10.50;9.25;;;;;23.73;48.36;101576.59;5089218;27;47560;-50
2021/06/10 03:22:55;;;;;;;;;9.50;9.50;;;;;23.74;48.76;101577.47;5089820;27;45403;-50
2021/06/10 03:25:22;;;;;;;;;11.00;11.00;;;;;23.75;48.47;101573.78;5089384;27;45396;-51
2021/06/10 03:27:49;;;;;;;;;11.50;10.00;;;;;23.75;48.65;101577.34;5096465;27;45712;-50
2021/06/10 03:30:16;;;;;;;;;12.75;12.75;;;;;23.76;48.38;101573.72;5086166;27;45551;-50
2021/06/10 03:32:41;;;;;;;;;0.75;0.75;;;;;23.77;48.27;101583.59;5094326;27;45717;-49
2021/06/10 03:35:09;;;;;;;;;9.25;8.25;;;;;23.78;48.27;101573.59;5092887;27;45471;-48
2021/06/10 03:37:35;;;;;;;;;11.50;10.75;;;;;23.77;48.13;101577.28;5090941;27;45792;-51
2021/06/10 03:40:04;;;;;;;;;10.50;10.50;;;;;23.76;48.35;101571.00;5094209;27;48378;-49
2021/06/10 03:42:30;;;;;;;;;10.75;10.00;;;;;23.77;48.42;101563.75;5095831;27;45423;-52
2021/06/10 03:44:57;;;;;;;;;9.25;9.25;;;;;23.80;48.32;101560.81;5090476;27;45359;-52
2021/06/10 03:47:23;;;;;;;;;12.50;12.50;;;;;23.79;48.03;101559.09;5090712;27;45587;-52
2021/06/10 03:49:49;;;;;;;;;8.50;8.50;;;;;23.79;48.46;101556.38;5084107;27;48055;-50
2021/06/10 03:52:14;;;;;;;;;8.00;8.00;;;;;23.80;47.97;101551.81;5088509;27;45397;-52
2021/06/10 03:54:40;;;;;;;;;8.00;8.00;;;;;23.76;48.19;101543.91;5090583;27;45322;-51
2021/06/10 03:57:09;;;;;;;;;10.00;10.00;;;;;23.72;48.03;101560.44;5093551;27;45623;-50
2021/06/10 03:59:34;;;;;;;;;8.75;8.75;;;;;23.68;48.00;101556.19;5084006;27;45408;-50
2021/06/10 04:02:00;;;;;;;;;9.00;9.00;;;;;23.66;48.00;101563.53;5090684;27;46229;-49
2021/06/10 04:04:27;;;;;;;;;9.00;9.00;;;;;23.65;48.28;101557.25;5090219;27;45501;-51
2021/06/10 04:06:53;;;;;;;;;8.00;8.00;;;;;23.65;47.78;101559.09;5093222;27;45373;-50
2021/06/10 04:09:19;;;;;;;;;9.25;9.00;;;;;23.65;48.11;101557.25;5092079;27;47252;-46
2021/06/10 04:11:45;;;;;;;;;9.50;9.25;;;;;23.66;48.12;101555.41;5085265;27;45766;-48
2021/06/10 04:14:10;;;;;;;;;10.50;9.50;;;;;23.66;47.56;101560.84;5088306;27;45803;-48
2021/06/10 04:16:36;;;;;;;;;9.50;9.50;;;;;23.66;47.65;101564.41;5092820;27;45589;-50
2021/06/10 04:19:02;;;;;;;;;9.00;8.00;;;;;23.65;47.92;101568.09;5102819;27;46177;-47
2021/06/10 04:21:27;;;;;;;;;11.00;11.00;;;;;23.64;48.11;101565.47;5096241;27;45828;-49
2021/06/10 04:23:53;;;;;;;;;9.00;9.00;;;;;23.66;47.63;101566.25;5090719;27;45509;-49
2021/06/10 04:26:19;;;;;;;;;10.00;9.00;;;;;23.66;47.47;101567.13;5091178;27;45487;-52
2021/06/10 04:28:45;;;;;;;;;7.50;7.50;;;;;23.63;47.12;101575.44;5095891;27;47447;-48
2021/06/10 04:31:15;;;;;;;;;8.00;8.00;;;;;23.58;47.68;101573.97;5087021;27;45486;-50
2021/06/10 04:33:41;;;;;;;;;10.25;10.25;;;;;23.57;47.26;101564.06;5093850;27;45419;-50
2021/06/10 04:36:07;;;;;;;;;8.75;8.75;;;;;23.57;47.42;101578.50;5097059;27;45552;-49
2021/06/10 04:38:32;;;;;;;;;8.50;8.50;;;;;23.58;47.00;101573.97;5089997;27;47461;-47
2021/06/10 04:40:58;;;;;;;;;9.50;9.00;;;;;23.55;47.25;101583.16;5099494;27;45439;-49
2021/06/10 04:43:24;;;;;;;;;9.00;8.00;;;;;23.52;47.17;101580.63;5122751;27;45412;-48
2021/06/10 04:45:49;;;;;;;;;8.00;7.00;;;;;23.49;47.23;101583.50;5091989;27;45427;-50
2021/06/10 04:48:15;;;;;;;;;9.00;8.00;;;;;23.51;46.36;101575.31;5097021;27;47211;-50
2021/06/10 04:50:41;;;;;;;;;9.75;7.75;;;;;23.52;46.06;101577.06;5089619;27;45608;-50
2021/06/10 04:53:07;;;;;;;;;6.50;6.00;;;;;23.49;45.82;101581.66;5092429;27;45454;-45
2021/06/10 04:55:33;;;;;;;;;9.00;7.25;;;;;23.46;45.41;101578.28;5093427;27;45297;-51
2021/06/10 04:57:59;;;;;;;;;7.50;5.25;;;;;23.45;45.33;101577.41;5093490;27;48582;-48
2021/06/10 05:00:25;;;;;;;;;5.25;5.25;;;;;23.46;44.68;101581.00;5093952;27;45855;-50
2021/06/10 05:02:50;;;;;;;;;4.50;4.50;;;;;23.42;43.75;101580.31;5093358;27;45965;-48
2021/06/10 05:05:16;;;;;;;;;4.00;4.00;;;;;23.38;43.19;101577.91;5095249;27;45430;-51
2021/06/10 05:07:41;;;;;;;;;5.00;5.00;;;;;23.37;42.96;101581.56;5097722;27;47405;-51
2021/06/10 05:10:07;;;;;;;;;3.50;3.50;;;;;23.35;42.94;101584.38;5095638;27;45442;-47
2021/06/10 05:12:33;;;;;;;;;3.50;3.50;;;;;23.36;42.82;101585.22;5095033;27;45534;-49
2021/06/10 05:14:59;;;;;;;;;4.75;4.75;;;;;23.36;42.55;101582.53;5099207;27;45726;-51
2021/06/10 05:17:25;;;;;;;;;3.50;3.50;;;;;23.37;42.34;101570.72;5097720;27;47237;-51
2021/06/10 05:19:50;;;;;;;;;4.50;4.50;;;;;23.39;42.16;101574.22;5097439;27;45297;-48
2021/06/10 05:22:16;;;;;;;;;3.75;3.75;;;;;23.40;41.94;101575.97;5100492;27;45315;-52
2021/06/10 05:24:41;;;;;;;;;2.50;2.50;;;;;23.39;41.50;101568.81;5097671;27;45936;-51
2021/06/10 05:27:09;;;;;;;;;4.67;3.00;;;;;23.35;41.65;101578.06;5090099;27;47695;-52
2021/06/10 05:29:36;;;;;;;;;2.67;2.67;;;;;23.36;41.82;101577.09;5094401;27;46033;-51
2021/06/10 05:32:02;;;;;;;;;4.67;4.67;;;;;23.39;41.62;101576.94;5095876;27;45517;-50
2021/06/10 05:34:28;;;;;;;;;6.00;6.00;;;;;23.43;41.34;101571.22;5093783;27;45627;-47
2021/06/10 05:36:53;;;;;;;;;4.50;4.50;;;;;23.45;41.21;101579.25;5089973;27;47691;-51
2021/06/10 05:39:20;;;;;;;;;2.00;2.00;;;;;23.46;41.51;101581.00;5080755;27;45985;-50
2021/06/10 05:41:46;;;;;;;;;4.00;4.00;;;;;23.48;40.64;101582.63;5080855;27;45350;-50
2021/06/10 05:44:11;;;;;;;;;6.00;6.00;;;;;23.49;40.28;101586.22;5083804;27;45439;-50
2021/06/10 05:46:37;;;;;;;;;2.67;2.67;;;;;23.51;40.22;101576.19;5116123;27;48150;-51
2021/06/10 05:49:02;;;;;;;;;3.00;3.00;;;;;23.53;40.48;101576.97;5103815;27;45647;-49
2021/06/10 05:51:28;;;;;;;;;3.50;3.50;;;;;23.54;40.17;101584.13;5102851;27;45330;-48
2021/06/10 05:53:53;;;;;;;;;2.33;2.33;;;;;23.54;39.88;101584.13;5102901;27;45381;-51
2021/06/10 05:56:19;;;;;;;;;2.75;2.75;;;;;23.52;39.52;101585.19;5097235;27;46983;-52
2021/06/10 05:58:44;;;;;;;;;3.00;3.00;;;;;23.51;40.00;101581.59;5100877;27;45875;-52
2021/06/10 06:01:10;;;;;;;;;3.00;3.00;;;;;23.53;39.89;101582.38;5094828;27;45698;-53
2021/06/10 06:03:35;;;;;;;;;3.67;3.67;;;;;23.54;39.67;101585.94;5087759;27;46252;-49
2021/06/10 06:06:01;;;;;;;;;2.50;2.50;;;;;23.56;40.12;101586.72;5093743;27;47398;-50
2021/06/10 06:08:26;;;;;;;;;3.00;2.50;;;;;23.60;39.55;101596.44;5097005;27;45941;-47
2021/06/10 06:10:53;;;;;;;;;3.75;3.75;;;;;23.63;39.05;101599.84;5099142;27;45518;-51
2021/06/10 06:13:22;;;;;;;;;3.50;3.50;;;;;23.64;39.39;101601.59;5100478;27;45456;-47
2021/06/10 06:15:50;;;;;;;;;3.50;3.50;;;;;23.65;38.87;101594.31;5101170;27;46607;-50
2021/06/10 06:18:17;;;;;;;;;3.00;3.00;;;;;23.63;39.32;101594.44;5093794;27;45344;-50
2021/06/10 06:20:42;;;;;;;;;4.00;4.00;;;;;23.66;39.33;101598.78;5098031;27;45313;-51
2021/06/10 06:23:08;;;;;;;;;5.75;4.00;;;;;23.71;39.13;101602.06;5092140;27;45372;-48
2021/06/10 06:25:34;;;;;;;;;3.25;3.25;;;;;23.76;39.35;101600.81;5098603;27;47311;-51
2021/06/10 06:27:59;;;;;;;;;5.00;3.75;;;;;23.81;39.19;101605.06;5095693;27;45399;-51
2021/06/10 06:30:25;;;;;;;;;4.67;3.00;;;;;23.86;38.92;101602.91;5095788;27;46090;-51
2021/06/10 06:32:50;;;;;;;;;5.50;3.75;;;;;23.88;39.05;101609.13;5094306;27;45733;-49
2021/06/10 06:35:16;;;;;;;;;4.00;4.00;;;;;23.92;38.64;101607.97;5094973;27;47755;-49
2021/06/10 06:37:41;;;;;;;;;2.50;2.50;;;;;23.96;38.21;101602.25;5096373;27;45670;-47
2021/06/10 06:40:09;;;;;;;;;4.50;4.50;;;;;23.99;37.63;101612.88;5113420;27;45411;-52
2021/06/10 06:42:34;;;;;;;;;4.00;3.00;;;;;23.95;37.28;101613.19;5091855;27;45527;-51
2021/06/10 06:45:00;;;;;;;;;6.75;3.75;;;;;23.94;36.30;101620.47;5095941;27;48090;-53
2021/06/10 06:47:25;;;;;;;;;1.00;1.00;;;;;23.88;37.05;101628.97;5092472;27;45906;-50
2021/06/10 06:49:51;;;;;;;;;2.25;2.25;;;;;23.87;36.61;101639.91;5092083;27;45831;-53
2021/06/10 06:52:16;;;;;;;;;4.00;4.00;;;;;23.86;36.54;101641.75;5099599;27;45394;-51
2021/06/10 06:54:42;;;;;;;;;4.25;3.00;;;;;23.88;36.20;101638.94;5090735;27;48543;-52
2021/06/10 06:57:07;;;;;;;;;3.50;3.25;;;;;23.87;35.84;101640.78;5095391;27;45807;-51
2021/06/10 06:59:33;;;;;;;;;2.00;2.00;;;;;23.88;36.09;101642.50;5100437;27;45357;-52
2021/06/10 07:01:59;;;;;;;;;2.75;2.75;;;;;23.90;36.07;101642.44;5098938;27;45359;-52
2021/06/10 07:04:25;;;;;;;;;3.00;2.50;;;;;23.97;36.24;101646.50;5102474;27;45776;-52
2021/06/10 07:06:52;;;;;;;;;4.50;4.50;;;;;24.04;35.96;101650.56;5096272;27;45396;-48
2021/06/10 07:09:18;;;;;;;;;4.75;3.00;;;;;24.10;36.26;101652.03;5090469;27;45299;-48
2021/06/10 07:11:43;;;;;;;;;4.00;4.00;;;;;24.16;35.83;101648.94;5100363;27;45621;-49
2021/06/10 07:14:09;;;;;;;;;3.50;3.50;;;;;24.18;36.12;101656.00;5098164;27;47407;-48
2021/06/10 07:16:36;;;;;;;;;3.25;3.25;;;;;24.18;36.30;101658.72;5090206;27;45518;-49
2021/06/10 07:19:02;;;;;;;;;4.67;4.00;;;;;24.19;36.28;101663.16;5093401;27;45421;-48
2021/06/10 07:21:44;;;;;;;;;3.50;3.50;;;;;24.24;37.11;101666.44;5097047;27;45331;-52
2021/06/10 07:24:09;;;;;;;;;6.00;4.25;;;;;24.33;37.08;101655.03;5092804;27;46913;-57
2021/06/10 07:26:35;;;;;;;;;5.00;5.00;;;;;24.38;36.82;101656.56;5093582;27;46512;-49
2021/06/10 07:29:00;;;;;;;;;2.75;2.75;;;;;24.40;36.81;101658.25;5084349;27;45425;-49
2021/06/10 07:31:26;;;;;;;;;5.00;4.00;;;;;24.40;36.75;101651.94;5090246;27;45644;-53
2021/06/10 07:33:51;;;;;;;;;2.75;2.75;;;;;24.42;36.88;101656.28;5098251;27;47127;-49
2021/06/10 07:36:17;;;;;;;;;4.50;3.50;;;;;24.47;36.66;101651.44;5095868;27;45499;-51
2021/06/10 07:38:42;;;;;;;;;4.25;4.00;;;;;24.54;36.50;101652.78;5093555;27;45319;-50
2021/06/10 07:41:08;;;;;;;;;4.50;4.00;;;;;24.54;36.40;101654.63;5091662;27;45394;-50
2021/06/10 07:43:33;;;;;;;;;5.00;5.00;;;;;24.55;36.22;101661.78;5079892;27;46168;-49
2021/06/10 07:46:00;;;;;;;;;3.50;3.50;;;;;24.53;36.06;101661.03;5089651;27;45582;-52
2021/06/10 07:48:29;;;;;;;;;4.00;4.00;;;;;24.53;35.72;101666.47;5094022;27;45662;-49
2021/06/10 07:50:54;;;;;;;;;4.75;4.75;;;;;24.47;36.00;101659.56;5098823;27;45507;-51
2021/06/10 07:53:20;;;;;;;;;4.00;2.75;;;;;24.40;35.53;101654.66;5095405;27;47093;-48
2021/06/10 07:55:46;;;;;;;;;5.00;5.00;;;;;24.33;35.07;101649.63;5094449;27;46276;-48
2021/06/10 07:58:11;;;;;;;;;4.33;2.67;;;;;24.28;35.29;101656.28;5092403;27;45580;-50
2021/06/10 08:00:37;;;;;;;;;4.75;4.50;;;;;24.24;35.18;101662.84;5107411;27;45393;-47
2021/06/10 08:03:03;;;;;;;;;3.25;3.00;;;;;24.14;35.24;101659.88;5090112;27;47293;-47
2021/06/10 08:05:29;;;;;;;;;4.00;3.67;;;;;24.05;35.48;101664.03;5091147;27;45677;-47
2021/06/10 08:07:55;;;;;;;;;2.75;2.75;;;;;24.02;35.61;101652.53;5095848;27;45383;-51
2021/06/10 08:10:21;;;;;;;;;3.25;3.25;;;;;23.97;35.56;101647.38;5091310;27;45569;-52
2021/06/10 08:12:47;;;;;;;;;2.75;2.75;;;;;23.97;35.52;101646.50;5095214;27;48187;-48
2021/06/10 08:15:13;;;;;;;;;3.33;3.33;;;;;23.94;35.60;101653.00;5093240;27;47145;-51
2021/06/10 08:17:39;;;;;;;;;4.00;4.00;;;;;23.92;35.55;101652.22;5092293;27;45485;-50
2021/06/10 08:20:07;;;;;;;;;3.00;3.00;;;;;23.90;35.50;101653.28;5086844;27;46824;-46
2021/06/10 08:22:32;;;;;;;;;3.00;3.00;;;;;23.88;35.60;101647.94;5107584;27;47118;-47
2021/06/10 08:24:58;;;;;;;;;3.25;3.25;;;;;23.91;36.10;101646.91;5092280;27;45268;-49
2021/06/10 08:27:23;;;;;;;;;4.00;3.00;;;;;23.94;35.78;101653.00;5083739;27;45475;-51
2021/06/10 08:29:49;;;;;;;;;5.33;3.33;;;;;24.00;35.70;101649.00;5086294;27;45374;-48
2021/06/10 08:32:14;;;;;;;;;6.50;5.00;;;;;24.06;35.90;101643.22;5091265;27;45617;-50
2021/06/10 08:34:40;;;;;;;;;3.25;3.00;;;;;24.12;35.84;101640.09;5090414;27;45488;-48
2021/06/10 08:37:06;;;;;;;;;6.75;6.75;;;;;24.15;36.17;101641.75;5087638;27;45320;-48
2021/06/10 08:39:32;;;;;;;;;5.50;5.50;;;;;24.19;36.04;101643.31;5090906;27;45991;-53
2021/06/10 08:41:57;;;;;;;;;5.00;4.00;;;;;24.21;35.94;101635.94;5094401;27;45571;-49
2021/06/10 08:44:24;;;;;;;;;4.25;4.25;;;;;24.24;36.20;101636.59;5086744;27;45727;-51
2021/06/10 08:46:50;;;;;;;;;2.50;2.50;;;;;24.27;36.18;101640.97;5085332;27;45395;-52
2021/06/10 08:49:16;;;;;;;;;2.50;2.50;;;;;24.27;36.20;101640.97;5085500;27;45350;-48
2021/06/10 08:51:41;;;;;;;;;6.00;6.00;;;;;24.29;36.31;101633.59;5082159;27;47343;-51
2021/06/10 08:54:07;;;;;;;;;4.50;4.50;;;;;24.31;36.12;101631.69;5084898;27;45487;-49
2021/06/10 08:56:33;;;;;;;;;4.00;4.00;;;;;24.33;36.46;101632.47;5092558;27;45431;-53
2021/06/10 08:59:00;;;;;;;;;5.50;4.75;;;;;24.38;36.63;101632.16;5098548;27;45550;-51
2021/06/10 09:01:25;;;;;;;;;3.75;3.00;;;;;24.38;36.64;101626.72;5095771;27;48254;-50
2021/06/10 09:03:51;;;;;;;;;3.50;3.50;;;;;24.40;36.77;101627.53;5082500;27;45443;-51
2021/06/10 09:06:19;;;;;;;;;3.50;3.50;;;;;24.43;36.85;101620.03;5097884;27;45204;-47
2021/06/10 09:08:49;;;;;;;;;3.75;3.75;;;;;24.47;36.65;101620.72;5087941;27;45440;-52
2021/06/10 09:11:23;;;;;;;;;6.75;4.75;;;;;24.49;36.70;101624.19;5093233;27;46983;-50
2021/06/10 09:13:59;;;;;;;;;4.75;4.75;;;;;24.48;36.80;101623.31;5089313;27;45657;-50
2021/06/10 09:16:34;;;;;;;;;5.00;5.00;;;;;24.46;36.67;101618.97;5085812;27;45376;-50
2021/06/10 09:19:14;;;;;;;;;4.25;4.25;;;;;24.46;36.89;101614.41;5098430;27;45335;-51
2021/06/10 09:21:57;;;;;;;;;7.00;7.00;;;;;24.53;36.96;101625.75;5090266;27;47542;-52
2021/06/10 09:24:32;;;;;;;;;5.25;5.25;;;;;24.58;36.89;101621.75;5092691;27;45629;-47
2021/06/10 09:27:14;;;;;;;;;4.25;4.25;;;;;24.63;37.05;101622.31;5081164;27;45752;-49
2021/06/10 09:29:42;;;;;;;;;4.50;4.50;;;;;24.72;36.89;101612.69;5081683;27;45680;-52
2021/06/10 09:32:20;;;;;;;;;6.25;6.00;;;;;24.79;36.85;101614.03;5091561;27;47468;-49
2021/06/10 09:34:53;;;;;;;;;8.50;6.75;;;;;24.88;36.88;101617.94;5099735;27;45531;-49
2021/06/10 09:37:34;;;;;;;;;4.25;4.25;;;;;24.93;36.75;101618.53;5099322;27;45316;-50
2021/06/10 09:40:13;;;;;;;;;5.00;5.00;;;;;24.95;36.96;101616.56;5082313;27;45767;-51
2021/06/10 09:42:40;;;;;;;;;6.00;6.00;;;;;24.95;36.93;101605.72;5093534;27;45486;-50
2021/06/10 09:45:12;;;;;;;;;6.00;5.50;;;;;24.96;36.92;101618.31;5094709;27;46128;-51
2021/06/10 09:47:40;;;;;;;;;7.50;7.00;;;;;24.99;37.10;101611.81;5095471;27;45531;-60
2021/06/10 09:50:20;;;;;;;;;7.25;7.25;;;;;25.02;37.05;101617.03;5105040;27;45584;-52
2021/06/10 09:52:47;;;;;;;;;7.00;7.00;;;;;25.06;37.17;101615.88;5094379;27;45493;-51
2021/06/10 09:55:52;;;;;;;;;12.50;12.50;;;;;25.11;36.92;101622.72;5094464;27;45561;-52
2021/06/10 09:58:30;;;;;;;;;6.00;6.00;;;;;25.20;36.99;101623.97;5096473;27;45335;-52
2021/06/10 10:01:01;;;;;;;;;7.50;7.25;;;;;25.33;37.06;101623.97;5097637;27;45711;-53
2021/06/10 10:03:29;;;;;;;;;6.50;6.50;;;;;25.48;36.93;101622.91;5090345;27;48807;-51
2021/06/10 10:06:08;;;;;;;;;7.50;6.50;;;;;25.63;36.46;101624.53;5097112;27;45431;-53
2021/06/10 10:08:35;;;;;;;;;9.75;7.75;;;;;25.77;36.47;101623.59;5097630;27;45411;-54
2021/06/10 10:11:03;;;;;;;;;7.75;7.75;;;;;25.87;36.17;101629.25;5094990;27;45299;-51
2021/06/10 10:13:30;;;;;;;;;12.00;10.25;;;;;25.96;36.03;101628.59;5100409;27;47080;-47
2021/06/10 10:16:03;;;;;;;;;7.00;7.00;;;;;26.02;35.86;101626.28;5094822;27;46049;-52
2021/06/10 10:18:29;;;;;;;;;11.00;11.00;;;;;26.09;35.53;101624.88;5097155;27;45587;-50
2021/06/10 10:20:58;;;;;;;;;6.25;6.25;;;;;26.14;35.46;101615.50;5092492;27;45798;-50
2021/06/10 10:23:24;;;;;;;;;9.25;9.25;;;;;26.16;35.37;101616.25;5096326;27;47450;-50
2021/06/10 10:25:55;;;;;;;;;8.25;8.25;;;;;26.15;35.65;101607.25;5098364;27;47775;-48
2021/06/10 10:28:21;;;;;;;;;7.50;7.50;;;;;26.11;35.25;101613.88;5100385;27;45553;-51
2021/06/10 10:30:47;;;;;;;;;9.00;8.00;;;;;26.07;35.12;101605.09;5097663;27;45470;-50
2021/06/10 10:33:18;;;;;;;;;7.25;5.50;;;;;26.02;35.29;101607.25;5096732;27;46937;-49
2021/06/10 10:35:52;;;;;;;;;10.00;10.00;;;;;25.98;36.10;101605.75;5098497;27;45492;-53
2021/06/10 10:38:27;;;;;;;;;6.75;6.75;;;;;25.99;35.45;101607.50;5099404;27;45579;-50
2021/06/10 10:40:59;;;;;;;;;10.50;8.75;;;;;25.99;35.54;101607.50;5097711;27;45429;-52
2021/06/10 10:43:26;;;;;;;;;6.75;6.75;;;;;25.97;35.73;101605.88;5097088;27;47402;-48
2021/06/10 10:46:06;;;;;;;;;9.25;9.25;;;;;25.93;35.37;101604.34;5095435;27;45630;-48
2021/06/10 10:48:34;;;;;;;;;7.25;7.25;;;;;25.92;35.65;101605.31;5098297;27;45495;-49
2021/06/10 10:51:00;;;;;;;;;7.25;7.25;;;;;25.91;35.85;101604.44;5092402;27;45424;-49
2021/06/10 10:53:27;;;;;;;;;6.00;6.00;;;;;25.89;35.93;101595.53;5092605;27;46197;-53
2021/06/10 10:56:06;;;;;;;;;8.25;7.00;;;;;25.89;35.90;101589.22;5091115;27;45427;-49
2021/06/10 10:58:32;;;;;;;;;7.75;7.75;;;;;25.89;35.90;101590.09;5096457;27;45542;-49
2021/06/10 11:01:00;;;;;;;;;9.75;9.25;;;;;25.88;36.01;101588.34;5091420;27;46052;-50
2021/06/10 11:03:43;;;;;;;;;8.50;8.50;;;;;25.88;36.04;101598.38;5095229;27;47355;-49
2021/06/10 11:06:21;;;;;;;;;9.75;8.00;;;;;25.88;36.06;101591.06;5092647;27;46442;-52
2021/06/10 11:09:11;;;;;;;;;8.00;8.00;;;;;25.90;36.12;101596.41;5113258;27;45678;-52
2021/06/10 11:12:00;;;;;;;;;8.75;8.75;;;;;25.90;36.13;101591.81;5099506;27;45545;-51
2021/06/10 11:14:37;;;;;;;;;10.25;10.25;;;;;25.93;35.62;101598.91;5090047;27;46898;-49
2021/06/10 11:17:14;;;;;;;;;10.00;9.00;;;;;25.94;35.68;101592.50;5093665;27;45443;-50
2021/06/10 11:20:07;;;;;;;;;10.00;10.00;;;;;25.96;35.83;101579.66;5097012;27;45600;-48
2021/06/10 11:22:44;;;;;;;;;9.50;8.75;;;;;25.98;35.71;101577.69;5094657;27;45868;-49